createdAt,value
2022-11-12T00:00:18.371Z,101996.97
2022-11-12T00:05:40.125Z,101990.91
2022-11-12T00:11:02.447Z,101992.72
2022-11-12T00:16:24.016Z,101992.88
2022-11-12T00:21:45.378Z,101993.75
2022-11-12T00:27:08.310Z,101988.72
2022-11-12T00:32:29.832Z,101987.00
2022-11-12T00:37:55.116Z,101991.41
2022-11-12T00:43:17.765Z,101989.72
2022-11-12T00:48:39.150Z,101998.84
2022-11-12T00:54:00.591Z,101996.06
2022-11-12T00:59:23.369Z,101994.19
2022-11-12T01:04:44.929Z,101991.56
2022-11-12T01:10:07.255Z,101987.13
2022-11-12T01:15:29.952Z,101985.31
2022-11-12T01:20:51.035Z,101978.28
2022-11-12T01:26:13.950Z,101971.00
2022-11-12T01:31:37.644Z,101976.47
2022-11-12T01:36:58.867Z,101979.16
2022-11-12T01:42:20.268Z,101965.72
2022-11-12T01:47:43.233Z,101977.53
2022-11-12T01:53:06.262Z,101967.56
2022-11-12T01:58:29.124Z,101972.06
2022-11-12T02:03:52.283Z,101965.81
2022-11-12T02:09:13.812Z,101973.06
2022-11-12T02:14:35.195Z,101973.94
2022-11-12T02:20:00.700Z,101974.03
2022-11-12T02:25:24.326Z,101978.53
2022-11-12T02:30:46.420Z,101985.72
2022-11-12T02:36:07.895Z,101980.34
2022-11-12T02:41:30.849Z,101977.72
2022-11-12T02:46:52.462Z,101981.44
2022-11-12T02:52:13.856Z,101976.84
2022-11-12T02:57:36.827Z,101991.25
2022-11-12T03:03:01.324Z,101991.44
2022-11-12T03:08:22.453Z,101999.41
2022-11-12T03:13:45.411Z,101992.19
2022-11-12T03:19:07.231Z,102001.22
2022-11-12T03:24:29.118Z,102004.84
2022-11-12T03:29:51.801Z,102012.06
2022-11-12T03:35:13.400Z,102014.91
2022-11-12T03:40:34.762Z,102000.63
2022-11-12T03:45:57.404Z,101996.97
2022-11-12T03:51:21.138Z,101993.41
2022-11-12T03:56:42.406Z,101993.34
2022-11-12T04:02:05.122Z,101990.72
2022-11-12T04:07:44.141Z,101984.41
2022-11-12T04:13:23.081Z,101980.13
2022-11-12T04:19:03.934Z,101983.69
2022-11-12T04:24:43.737Z,101987.31
2022-11-12T04:30:19.011Z,101977.53
2022-11-12T04:35:42.044Z,101983.78
2022-11-12T04:41:23.131Z,101982.13
2022-11-12T04:46:44.653Z,101975.03
2022-11-12T04:52:07.403Z,101981.25
2022-11-12T04:57:28.567Z,101985.84
2022-11-12T05:02:50.481Z,101987.69
2022-11-12T05:08:13.242Z,101987.72
2022-11-12T05:13:34.716Z,101996.75
2022-11-12T05:18:56.224Z,102006.91
2022-11-12T05:24:40.470Z,102000.34
2022-11-12T05:30:00.108Z,102001.38
2022-11-12T05:35:21.564Z,102008.25
2022-11-12T05:40:46.865Z,102009.03
2022-11-12T05:46:08.090Z,102017.19
2022-11-12T05:51:29.638Z,102013.63
2022-11-12T05:56:52.505Z,102019.09
2022-11-12T06:02:13.946Z,102028.91
2022-11-12T06:07:35.347Z,102027.06
2022-11-12T06:12:58.138Z,102030.88
2022-11-12T06:18:19.585Z,102028.13
2022-11-12T06:23:41.044Z,102036.41
2022-11-12T06:29:03.875Z,102036.59
2022-11-12T06:34:25.420Z,102034.91
2022-11-12T06:39:46.847Z,102034.06
2022-11-12T06:45:11.206Z,102035.09
2022-11-12T06:50:32.273Z,102030.13
2022-11-12T06:55:53.536Z,102037.25
2022-11-12T07:01:17.317Z,102046.56
2022-11-12T07:06:38.895Z,102046.66
2022-11-12T07:12:00.330Z,102043.06
2022-11-12T07:17:23.054Z,102034.25
2022-11-12T07:22:44.580Z,102046.88
2022-11-12T07:28:06.064Z,102024.31
2022-11-12T07:33:29.258Z,102034.59
2022-11-12T07:38:52.648Z,102044.28
2022-11-12T07:44:13.935Z,102041.69
2022-11-12T07:49:36.695Z,102043.66
2022-11-12T07:54:58.141Z,102042.00
2022-11-12T08:00:19.925Z,102057.81
2022-11-12T08:05:45.822Z,102048.91
2022-11-12T08:11:07.343Z,102045.75
2022-11-12T08:16:28.964Z,102047.63
2022-11-12T08:21:51.876Z,102040.75
2022-11-12T08:27:13.303Z,102039.03
2022-11-12T08:32:34.807Z,102042.19
2022-11-12T08:38:00.381Z,102043.13
2022-11-12T08:43:21.917Z,102054.47
2022-11-12T08:48:43.262Z,102051.97
2022-11-12T08:54:06.455Z,102038.09
2022-11-12T08:59:27.878Z,102050.31
2022-11-12T09:04:49.405Z,102054.72
2022-11-12T09:10:12.449Z,102058.59
2022-11-12T09:15:38.228Z,102061.34
2022-11-12T09:21:03.695Z,102062.78
2022-11-12T09:26:26.236Z,102052.03
2022-11-12T09:31:47.794Z,102050.84
2022-11-12T09:37:09.223Z,102056.25
2022-11-12T09:42:32.065Z,102057.34
2022-11-12T09:47:54.947Z,102063.28
2022-11-12T09:53:18.160Z,102060.94
2022-11-12T09:58:40.831Z,102051.72
2022-11-12T10:04:07.764Z,102053.53
2022-11-12T10:09:30.205Z,102053.78
2022-11-12T10:15:30.557Z,102059.56
2022-11-12T10:20:56.109Z,102052.69
2022-11-12T10:26:18.213Z,102063.03
2022-11-12T10:31:40.827Z,102052.53
2022-11-12T10:37:03.438Z,102055.22
2022-11-12T10:42:24.752Z,102047.72
2022-11-12T10:47:47.711Z,102036.91
2022-11-12T10:53:11.839Z,102037.47
2022-11-12T10:58:33.301Z,102027.34
2022-11-12T11:03:57.216Z,102032.03
2022-11-12T11:09:20.652Z,102014.78
2022-11-12T11:14:44.416Z,102027.81
2022-11-12T11:20:12.763Z,102020.16
2022-11-12T11:25:34.340Z,102011.09
2022-11-12T11:30:58.794Z,102015.81
2022-11-12T11:36:24.354Z,102009.31
2022-11-12T11:41:52.353Z,102010.56
2022-11-12T11:47:21.445Z,101999.66
2022-11-12T11:52:46.666Z,101997.75
2022-11-12T11:58:13.991Z,101984.41
2022-11-12T12:03:40.577Z,101983.38
2022-11-12T12:09:11.844Z,101982.91
2022-11-12T12:14:46.036Z,101976.00
2022-11-12T12:20:15.843Z,101971.09
2022-11-12T12:25:39.521Z,101955.09
2022-11-12T12:31:05.358Z,101953.63
2022-11-12T12:36:27.891Z,101944.31
2022-11-12T12:41:54.103Z,101947.53
2022-11-12T12:47:15.761Z,101943.81
2022-11-12T12:53:04.437Z,101945.38
2022-11-12T12:58:29.168Z,101949.38
2022-11-12T13:03:57.505Z,101951.78
2022-11-12T13:09:23.824Z,101940.97
2022-11-12T13:14:51.942Z,101939.25
2022-11-12T13:20:38.430Z,101937.13
2022-11-12T13:26:33.730Z,101929.94
2022-11-12T13:32:34.792Z,101935.06
2022-11-12T13:37:58.238Z,101930.13
2022-11-12T13:43:31.226Z,101921.97
2022-11-12T13:48:58.532Z,101916.13
2022-11-12T13:54:31.315Z,101919.09
2022-11-12T14:00:11.403Z,101925.50
2022-11-12T14:05:35.040Z,101923.06
2022-11-12T14:11:04.825Z,101926.63
2022-11-12T14:16:38.464Z,101930.34
2022-11-12T14:22:02.493Z,101923.84
2022-11-12T14:27:25.604Z,101909.53
2022-11-12T14:32:48.164Z,101888.41
2022-11-12T14:38:19.436Z,101894.75
2022-11-12T14:43:43.691Z,101888.41
2022-11-12T14:49:05.522Z,101895.44
2022-11-12T14:54:30.009Z,101890.44
2022-11-12T14:59:51.823Z,101881.50
2022-11-12T15:05:14.322Z,101877.94
2022-11-12T15:10:38.149Z,101877.84
2022-11-12T15:16:02.212Z,101871.50
2022-11-12T15:21:25.658Z,101871.63
2022-11-12T15:26:49.244Z,101856.53
2022-11-12T15:32:32.811Z,101869.19
2022-11-12T15:37:54.254Z,101875.59
2022-11-12T15:43:18.368Z,101878.50
2022-11-12T15:48:39.984Z,101872.25
2022-11-12T15:54:01.535Z,101868.69
2022-11-12T15:59:24.447Z,101870.41
2022-11-12T16:04:45.874Z,101880.31
2022-11-12T16:10:08.007Z,101872.25
2022-11-12T16:15:31.011Z,101882.03
2022-11-12T16:20:52.445Z,101880.41
2022-11-12T16:26:14.772Z,101880.13
2022-11-12T16:31:37.498Z,101886.38
2022-11-12T16:36:58.840Z,101882.81
2022-11-12T16:42:20.213Z,101889.25
2022-11-12T16:47:46.289Z,101875.09
2022-11-12T16:53:07.432Z,101882.19
2022-11-12T16:58:29.016Z,101866.88
2022-11-12T17:03:52.113Z,101879.50
2022-11-12T17:09:13.532Z,101871.53
2022-11-12T17:14:35.175Z,101876.81
2022-11-12T17:19:57.945Z,101872.41
2022-11-12T17:25:20.050Z,101867.03
2022-11-12T17:30:41.802Z,101869.66
2022-11-12T17:36:05.262Z,101858.91
2022-11-12T17:41:28.442Z,101850.88
2022-11-12T17:46:50.403Z,101851.59
2022-11-12T17:52:13.147Z,101854.38
2022-11-12T17:57:34.638Z,101850.81
2022-11-12T18:02:56.424Z,101849.00
2022-11-12T18:08:19.563Z,101845.44
2022-11-12T18:13:40.880Z,101834.94
2022-11-12T18:19:02.290Z,101843.78
2022-11-12T18:24:25.538Z,101840.13
2022-11-12T18:29:47.284Z,101841.88
2022-11-12T18:35:09.270Z,101846.31
2022-11-12T18:40:31.983Z,101847.63
2022-11-12T18:45:55.416Z,101851.00
2022-11-12T18:51:18.371Z,101855.31
2022-11-12T18:56:42.607Z,101864.63
2022-11-12T19:02:04.103Z,101852.22
2022-11-12T19:07:26.020Z,101842.16
2022-11-12T19:12:48.768Z,101846.47
2022-11-12T19:18:10.034Z,101839.38
2022-11-12T19:23:32.073Z,101847.25
2022-11-12T19:28:55.049Z,101838.41
2022-11-12T19:34:16.499Z,101843.69
2022-11-12T19:39:37.955Z,101837.53
2022-11-12T19:45:00.815Z,101825.91
2022-11-12T19:50:24.744Z,101834.84
2022-11-12T19:55:46.238Z,101838.41
2022-11-12T20:01:10.033Z,101838.59
2022-11-12T20:06:31.911Z,101836.69
2022-11-12T20:11:54.011Z,101835.91
2022-11-12T20:17:16.666Z,101843.00
2022-11-12T20:22:38.218Z,101847.00
2022-11-12T20:27:59.787Z,101853.59
2022-11-12T20:33:22.772Z,101842.16
2022-11-12T20:38:44.870Z,101834.38
2022-11-12T20:44:06.519Z,101834.38
2022-11-12T20:49:29.107Z,101837.72
2022-11-12T20:54:50.725Z,101827.06
2022-11-12T21:00:14.755Z,101829.75
2022-11-12T21:05:38.054Z,101824.53
2022-11-12T21:11:01.859Z,101814.59
2022-11-12T21:16:23.108Z,101812.06
2022-11-12T21:21:45.994Z,101810.16
2022-11-12T21:27:07.445Z,101813.13
2022-11-12T21:32:28.735Z,101805.06
2022-11-12T21:37:51.697Z,101796.13
2022-11-12T21:43:13.199Z,101799.56
2022-11-12T21:48:34.965Z,101798.91
2022-11-12T21:53:58.576Z,101799.88
2022-11-12T21:59:20.114Z,101806.19
2022-11-12T22:04:41.655Z,101788.16
2022-11-12T22:10:04.808Z,101795.34
2022-11-12T22:15:25.962Z,101797.19
2022-11-12T22:20:56.815Z,101793.72
2022-11-12T22:26:21.862Z,101788.16
2022-11-12T22:31:43.298Z,101785.56
2022-11-12T22:37:04.737Z,101785.66
2022-11-12T22:42:27.567Z,101776.63
2022-11-12T22:47:48.972Z,101777.59
2022-11-12T22:53:10.534Z,101768.63
2022-11-12T22:58:35.601Z,101776.53
2022-11-12T23:03:57.969Z,101768.81
2022-11-12T23:09:19.568Z,101755.19
2022-11-12T23:14:42.298Z,101754.41
2022-11-12T23:20:03.662Z,101750.00
2022-11-12T23:25:25.188Z,101742.63
2022-11-12T23:30:50.872Z,101740.88
2022-11-12T23:36:12.371Z,101744.44
2022-11-12T23:41:34.148Z,101736.66
2022-11-12T23:46:56.904Z,101736.75
2022-11-12T23:52:19.053Z,101740.22
2022-11-12T23:57:40.363Z,101732.13
